Latest Weather Observations for Argyle

IDW60801

Issued at 11:33 am WST Friday 24 February 2017 (issued every 30 minutes, with the page automatically refreshed every 10 minutes)

About weather observations | Map of weather stations | Latest weather observations for WA | Other Formats
Station Details ID: 002064 Name: ARGYLE AERODROME Lat: -16.64 Lon: 128.45 Height: 164.0 m
Data from the previous 72 hours. | See also: Recent months at Argyle
Date/Time
WST
Temp
°C
App
Temp
°C
Dew
Point
°C
Rel
Hum
%
Delta-T
°C
Wind Press
QNH
hPa
Press
MSL
hPa
Rain since
9am
mm
Dir  Spd
km/h
Gust
km/h
Spd
kts
Gust
kts
24/11:00am 31.4 36.7 24.4 66 4.9 W 4 9 2 5 1011.5 - 0.6
24/10:30am 32.6 36.9 23.3 58 6.5 S 6 11 3 6 1011.9 - 0.2
24/10:00am 33.9 36.1 21.9 49 8.2 E 13 19 7 10 1012.4 - 0.0
24/09:30am 33.5 35.3 21.8 50 8.0 E 15 26 8 14 1012.8 - 0.0
24/09:00am 32.7 34.0 20.8 49 8.0 E 15 20 8 11 1013.2 1011.9 0.0
24/08:30am 32.4 33.4 20.3 48 8.1 ESE 15 20 8 11 1013.2 - 0.0
24/08:00am 32.2 33.5 20.2 49 8.0 ESE 13 20 7 11 1013.1 - 0.0
24/07:30am 31.0 33.1 20.9 55 6.8 E 11 17 6 9 1012.8 - 0.0
24/07:00am 30.5 33.1 20.1 53 6.9 SSE 6 9 3 5 1012.2 - 0.0
24/06:30am 29.2 31.0 18.2 51 7.1 S 6 7 3 4 1011.7 - 0.0
24/06:00am 28.5 30.3 18.8 55 6.3 SSW 7 9 4 5 1011.3 1010.0 0.0
24/05:30am 28.7 30.2 17.6 51 7.1 SSW 6 7 3 4 1011.1 - 0.0
24/05:00am 28.4 30.2 18.8 56 6.2 SW 7 9 4 5 1011.2 - 0.0
24/04:30am 28.6 30.2 17.8 52 6.9 WSW 6 7 3 4 1011.0 - 0.0
24/04:00am 28.4 29.8 17.4 51 7.0 WSW 6 7 3 4 1010.7 - 0.0
24/03:30am 28.4 29.7 17.6 52 6.9 NW 7 7 4 4 1010.8 - 0.0
24/03:00am 28.5 30.3 17.3 50 7.1 NNW 4 7 2 4 1010.5 - 0.0
24/02:00am 28.5 28.9 15.4 45 8.1 E 7 11 4 6 1010.2 - 0.0
24/01:30am 28.8 29.4 15.3 43 8.3 E 6 9 3 5 1010.2 - 0.0
24/12:30am 30.5 29.4 12.0 32 10.9 S 9 13 5 7 1010.4 - 0.0
24/12:00am 28.6 28.6 14.2 41 8.7 SSE 7 9 4 5 1010.5 1009.2 0.0
 
Date/Time
WST
Temp
°C
App
Temp
°C
Dew
Point
°C
Rel
Hum
%
Delta-T
°C
Wind Press
QNH
hPa
Press
MSL
hPa
Rain since
9am
mm
Dir  Spd
km/h
Gust
km/h
Spd
kts
Gust
kts
23/11:30pm 29.1 30.5 16.3 46 8.0 W 4 7 2 4 1010.4 - 0.0
23/11:00pm 29.0 29.8 15.8 44 8.2 W 6 9 3 5 1010.4 - 0.0
23/10:30pm 30.5 32.2 15.1 39 9.5 CALM 0 0 0 0 1010.5 - 0.0
23/10:00pm 30.4 30.6 14.6 38 9.7 SW 7 9 4 5 1010.6 - 0.0
23/09:30pm 30.2 30.5 14.9 39 9.4 SW 7 9 4 5 1010.5 - 0.0
23/09:00pm 30.6 32.1 16.7 43 8.8 SSW 4 7 2 4 1010.6 1009.3 0.0
23/08:30pm 30.3 31.8 17.5 46 8.2 SSE 6 7 3 4 1010.4 - 0.0
23/08:00pm 32.2 31.6 13.6 32 11.3 SSE 9 11 5 6 1010.2 - 0.0
23/07:48pm 31.7 31.8 14.5 35 10.6 SE 7 9 4 5 1010.2 - 0.0
23/07:31pm 31.7 32.2 15.1 36 10.3 ESE 6 7 3 4 1010.0 - 0.0
23/07:30pm 31.7 32.1 14.7 35 10.5 ESE 6 7 3 4 1010.0 - 0.0
23/07:00pm 32.0 33.0 16.4 39 9.9 ESE 6 7 3 4 1009.6 - 0.0
23/06:30pm 32.8 33.1 15.0 34 11.1 E 7 9 4 5 1009.2 - 0.0
23/06:00pm 33.5 33.8 15.1 33 11.5 ENE 7 9 4 5 1008.8 1007.5 0.0
23/05:30pm 35.2 34.7 13.8 27 13.2 SE 9 11 5 6 1008.4 - 0.0
23/05:00pm 36.9 33.7 9.8 19 15.9 SE 17 26 9 14 1008.2 - 0.0
23/04:30pm 37.6 34.2 9.0 17 16.6 SE 17 26 9 14 1008.0 - 0.0
23/03:30pm 38.2 34.9 10.8 19 16.4 ESE 19 28 10 15 1007.8 - 0.0
23/03:00pm 38.4 34.9 10.3 18 16.7 SE 19 28 10 15 1008.0 1006.7 0.0
23/02:30pm 38.5 34.9 10.7 18 16.6 ESE 20 32 11 17 1008.2 - 0.0
23/02:00pm 38.2 35.1 12.1 21 15.9 SE 20 30 11 16 1008.4 - 0.0
23/01:30pm 38.3 34.9 10.6 19 16.5 ESE 19 28 10 15 1008.8 - 0.0
23/01:00pm 38.3 35.0 10.9 19 16.4 SSE 19 33 10 18 1009.1 - 0.0
23/12:30pm 37.9 35.2 10.2 18 16.4 SSE 15 28 8 15 1009.5 - 0.0
23/12:00pm 36.6 36.6 17.2 31 12.6 E 13 19 7 10 1009.9 1008.6 0.0
23/11:30am 36.1 35.7 17.1 32 12.3 E 15 20 8 11 1010.4 - 0.0
23/11:00am 36.2 37.1 17.5 33 12.2 ESE 9 15 5 8 1010.8 - 0.0
23/10:30am 35.2 35.6 18.1 36 11.2 ESE 13 20 7 11 1011.1 - 0.0
23/10:00am 34.1 35.3 18.2 39 10.4 SSE 9 15 5 8 1011.4 - 0.0
23/09:30am 33.7 34.7 18.6 40 9.9 S 11 19 6 10 1011.6 - 0.0
23/09:00am 33.3 34.6 18.5 41 9.7 S 9 15 5 8 1011.6 1010.4 0.0
23/08:30am 32.1 33.3 18.3 44 9.0 SSW 9 15 5 8 1011.7 - 0.0
23/08:00am 30.9 32.5 19.2 49 7.7 SSE 9 13 5 7 1012.0 - 0.0
23/07:30am 29.0 30.7 18.1 51 7.0 E 6 9 3 5 1011.9 - 0.0
23/07:00am 28.0 29.4 17.4 52 6.7 E 6 9 3 5 1011.6 - 0.0
23/06:30am 27.4 28.1 15.7 48 7.2 SSE 6 9 3 5 1011.4 - 0.0
23/06:00am 25.2 25.9 16.1 57 5.6 SE 7 9 4 5 1011.4 1010.1 0.0
23/05:30am 24.9 25.8 15.0 54 6.0 S 4 7 2 4 1011.1 - 0.0
23/05:00am 23.5 26.1 17.4 68 3.8 CALM 0 7 0 4 1010.8 - 0.0
23/04:30am 23.8 24.1 16.1 62 4.7 SSW 9 11 5 6 1010.4 - 0.0
23/04:00am 23.9 24.0 16.4 63 4.6 SSW 11 17 6 9 1010.3 - 0.0
23/03:30am 24.1 24.5 16.3 61 4.8 S 9 15 5 8 1009.9 - 0.0
23/03:00am 24.5 24.7 15.8 58 5.3 S 9 13 5 7 1009.7 1008.4 0.0
23/02:30am 25.0 25.6 15.9 57 5.6 WSW 7 11 4 6 1009.5 - 0.0
23/02:00am 25.1 25.7 15.8 56 5.7 WSW 7 9 4 5 1009.5 - 0.0
23/01:30am 26.7 26.5 14.8 48 7.2 SW 9 13 5 7 1009.7 - 0.0
23/01:00am 26.9 25.9 14.7 47 7.4 SW 13 15 7 8 1010.1 - 0.0
23/12:30am 26.8 26.2 14.6 47 7.4 WSW 11 13 6 7 1010.5 - 0.0
23/12:00am 26.7 26.2 14.8 48 7.2 WSW 11 13 6 7 1011.0 1009.7 0.0
 
Date/Time
WST
Temp
°C
App
Temp
°C
Dew
Point
°C
Rel
Hum
%
Delta-T
°C
Wind Press
QNH
hPa
Press
MSL
hPa
Rain since
9am
mm
Dir  Spd
km/h
Gust
km/h
Spd
kts
Gust
kts
22/11:30pm 26.7 26.5 15.8 51 6.7 WSW 11 13 6 7 1011.3 - 0.0
22/11:00pm 26.5 26.1 16.2 53 6.4 W 13 15 7 8 1011.5 - 0.0
22/10:30pm 26.3 26.9 17.6 58 5.5 W 11 13 6 7 1011.8 - 0.0
22/10:00pm 26.5 26.7 17.7 58 5.6 WNW 13 13 7 7 1011.7 - 0.0
22/09:30pm 26.9 27.6 17.9 57 5.7 WNW 11 13 6 7 1011.8 - 0.0
22/09:00pm 27.4 28.3 18.4 58 5.8 NW 11 13 6 7 1011.5 1010.3 0.0
22/08:30pm 28.0 29.8 18.7 57 6.0 NW 7 9 4 5 1011.3 - 0.0
22/08:00pm 28.2 30.0 19.5 59 5.7 NW 9 9 5 5 1011.1 - 0.0
22/07:30pm 29.4 30.3 16.7 46 8.0 WNW 7 9 4 5 1010.7 - 0.0
22/07:00pm 31.4 31.7 14.9 36 10.2 NNW 7 9 4 5 1010.3 - 0.0
22/06:30pm 31.9 32.6 16.0 38 10.0 N 7 7 4 4 1010.0 - 0.0
22/06:00pm 31.8 32.4 15.7 37 10.1 NE 7 9 4 5 1009.6 1008.3 0.0
22/05:30pm 34.0 34.1 13.8 29 12.4 SSE 6 9 3 5 1009.4 - 0.0
22/05:00pm 35.3 34.0 11.3 23 14.3 SSE 9 13 5 7 1009.1 - 0.0
22/04:30pm 35.9 34.4 12.0 23 14.4 SE 11 17 6 9 1009.2 - 0.0
22/04:00pm 36.8 35.0 9.3 18 16.0 SSE 9 15 5 8 1009.2 - 0.0
22/03:30pm 36.7 33.8 8.2 17 16.3 SE 13 20 7 11 1009.3 - 0.0
22/03:00pm 36.4 33.2 5.2 14 17.0 ESE 11 17 6 9 1009.4 1008.1 0.0
22/02:30pm 36.3 32.5 5.7 15 16.8 ESE 15 20 8 11 1009.5 - 0.0
22/02:00pm 36.7 33.1 8.5 18 16.2 ESE 17 24 9 13 1009.7 - 0.0
22/01:30pm 36.4 32.1 7.2 16 16.4 ESE 19 28 10 15 1009.8 - 0.0
22/01:00pm 36.1 34.4 9.7 20 15.4 E 9 19 5 10 1010.2 - 0.0
22/12:30pm 35.7 35.0 11.9 23 14.3 E 7 11 4 6 1010.7 - -
22/12:00pm 35.5 34.1 9.7 20 15.0 E 7 17 4 9 1011.1 1009.8 0.0
22/11:30am 35.1 34.3 11.7 24 14.0 ESE 7 11 4 6 1011.6 - 0.0
22/11:00am 34.7 33.6 11.8 25 13.7 ESE 9 15 5 8 1011.9 - 0.0
22/10:30am 34.6 33.5 14.2 29 12.6 SSE 13 19 7 10 1012.4 - 0.0
22/09:30am 32.6 34.0 16.3 37 10.3 NE 4 9 2 5 1013.1 - 0.0
22/09:00am 31.6 33.0 16.4 40 9.6 SSE 4 9 2 5 1013.2 1011.9 0.0
22/08:30am 31.0 32.1 17.2 43 8.8 E 7 9 4 5 1013.3 - 0.0
22/08:00am 29.9 32.0 17.2 46 8.1 ESE 2 11 1 6 1013.1 - 0.0
22/07:30am 28.8 31.2 16.9 48 7.5 CALM 0 2 0 1 1013.0 - 0.0
22/06:30am 26.0 27.1 16.7 56 5.8 S 6 9 3 5 1012.6 - 0.0
22/06:00am 24.0 25.0 16.9 64 4.4 S 7 11 4 6 1012.4 1011.1 0.0
22/05:30am 22.3 23.2 17.5 74 3.0 WSW 9 11 5 6 1011.9 - 0.0
22/05:00am 22.8 24.4 18.2 75 2.9 WSW 7 9 4 5 1011.8 - 0.0
22/04:30am 24.0 24.9 16.5 63 4.6 SSW 7 9 4 5 1011.7 - 0.0
22/04:00am 23.3 24.4 17.2 68 3.8 S 7 9 4 5 1011.5 - 0.0
22/03:34am 24.7 26.3 17.9 66 4.3 WSW 6 7 3 4 1011.2 - 0.0
22/03:30am 25.1 26.1 16.9 60 5.1 WSW 7 9 4 5 1011.2 - 0.0
22/03:20am 25.2 25.1 14.9 52 6.2 SW 9 11 5 6 1011.1 - 0.0
22/03:00am 23.9 24.3 17.2 66 4.2 WSW 11 13 6 7 1011.0 1009.7 0.0
22/02:30am 23.5 24.1 17.6 69 3.7 W 11 13 6 7 1010.8 - 0.0
22/02:00am 23.2 24.6 18.6 75 2.9 W 9 9 5 5 1010.8 - 0.0
22/01:40am 24.6 25.8 17.4 64 4.5 SW 7 9 4 5 1010.8 - 0.0
22/01:30am 24.1 25.9 18.8 72 3.4 SW 7 9 4 5 1010.8 - 0.0
22/01:15am 24.2 25.2 17.7 67 4.1 S 9 11 5 6 1010.9 - 0.0
22/01:00am 22.9 25.1 19.3 80 2.3 SSE 6 9 3 5 1011.0 - 0.0
22/12:30am 25.0 25.7 17.0 61 5.0 S 9 13 5 7 1011.2 - 0.0
22/12:00am 25.6 27.4 18.7 65 4.4 SW 7 9 4 5 1011.4 1010.1 0.0
 
Date/Time
WST
Temp
°C
App
Temp
°C
Dew
Point
°C
Rel
Hum
%
Delta-T
°C
Wind Press
QNH
hPa
Press
MSL
hPa
Rain since
9am
mm
Dir  Spd
km/h
Gust
km/h
Spd
kts
Gust
kts
21/11:30pm 25.6 27.0 17.9 62 4.9 SSW 7 13 4 7 1011.7 - 0.0
21/11:00pm 25.0 26.2 19.1 70 3.8 WNW 11 13 6 7 1011.8 - 0.0
21/10:30pm 27.1 28.0 17.6 56 6.0 N 9 11 5 6 1012.0 - 0.0
21/10:00pm 26.8 28.3 17.6 57 5.8 NNE 6 9 3 5 1011.9 - 0.0
21/09:30pm 27.6 29.5 18.6 58 5.8 W 6 7 3 4 1011.9 - 0.0
21/09:00pm 28.2 29.5 17.5 52 6.8 WSW 7 9 4 5 1011.8 1010.6 0.0
21/08:30pm 28.5 29.5 17.7 52 6.9 WSW 9 9 5 5 1011.6 - 0.0
21/08:00pm 28.6 29.8 18.2 53 6.7 WSW 9 9 5 5 1011.4 - 0.0
21/07:30pm 28.6 30.6 19.1 56 6.2 WNW 7 9 4 5 1011.2 - 0.0
21/07:22pm 29.0 30.7 18.5 53 6.8 W 7 7 4 4 1011.2 - 0.0
21/07:00pm 30.5 30.7 15.8 41 9.2 N 9 11 5 6 1010.9 - 0.0
21/06:48pm 30.7 30.4 15.4 39 9.5 N 11 11 6 6 1010.8 - 0.0
21/06:30pm 30.9 31.1 15.7 39 9.5 N 9 9 5 5 1010.5 - 0.0
21/06:00pm 30.8 30.2 14.5 37 10.0 NNE 11 15 6 8 1010.2 1008.9 0.0
21/05:00pm 33.8 33.3 13.7 29 12.3 ENE 9 11 5 6 1009.6 - 0.0
21/04:30pm 34.4 33.0 11.0 24 13.8 NE 9 13 5 7 1009.4 - 0.0
21/04:00pm 35.1 33.1 10.1 21 14.6 ESE 11 17 6 9 1009.2 - 0.0
21/03:30pm 35.4 34.1 11.4 23 14.3 E 9 15 5 8 1009.3 - 0.0
21/03:00pm 35.2 33.7 10.6 22 14.5 E 9 15 5 8 1009.5 1008.2 0.0
21/02:30pm 35.3 33.2 11.0 23 14.4 E 13 30 7 16 1009.7 - 0.0
21/02:00pm 35.0 32.5 8.2 19 15.2 ESE 11 17 6 9 1009.8 - 0.0
21/01:30pm 35.3 33.4 9.0 20 15.1 ENE 9 17 5 9 1010.1 - 0.0
21/01:00pm 35.1 32.6 8.4 19 15.2 E 11 17 6 9 1010.6 - 0.0
21/12:30pm 34.8 33.4 10.9 23 14.1 NE 9 17 5 9 1011.1 - 0.0
21/12:00pm 34.9 32.1 8.6 20 15.0 SE 13 20 7 11 1011.7 1010.5 0.0

Other Formats:

Comma delimited format used in spreadsheet applications
http://www.bom.gov.au/fwo/IDW60801/IDW60801.94217.axf

JavaScript Object Notation format (JSON) in row-major order
http://www.bom.gov.au/fwo/IDW60801/IDW60801.94217.json